createdAt,value
2023-05-20T00:02:09.678Z,26.37
2023-05-20T00:04:36.223Z,26.39
2023-05-20T00:07:03.846Z,26.42
2023-05-20T00:09:30.415Z,26.38
2023-05-20T00:11:56.980Z,26.38
2023-05-20T00:14:23.572Z,26.36
2023-05-20T00:16:50.172Z,26.39
2023-05-20T00:19:16.932Z,26.39
2023-05-20T00:21:43.767Z,26.38
2023-05-20T00:24:10.312Z,26.38
2023-05-20T00:26:36.804Z,26.36
2023-05-20T00:29:03.340Z,26.37
2023-05-20T00:31:29.908Z,26.37
2023-05-20T00:33:56.501Z,26.37
2023-05-20T00:36:23.017Z,26.38
2023-05-20T00:38:49.647Z,26.39
2023-05-20T00:41:16.148Z,26.37
2023-05-20T00:43:42.678Z,26.37
2023-05-20T00:46:10.063Z,26.36
2023-05-20T00:48:41.794Z,26.43
2023-05-20T00:51:08.812Z,26.34
2023-05-20T00:53:36.256Z,26.33
2023-05-20T00:56:04.396Z,26.36
2023-05-20T00:58:31.524Z,26.34
2023-05-20T01:00:58.575Z,26.32
2023-05-20T01:03:25.652Z,26.31
2023-05-20T01:05:52.448Z,26.32
2023-05-20T01:08:19.063Z,26.32
2023-05-20T01:10:46.797Z,26.32
2023-05-20T01:13:17.684Z,26.38
2023-05-20T01:15:44.154Z,26.72
2023-05-20T01:18:11.020Z,26.33
2023-05-20T01:20:37.918Z,26.29
2023-05-20T01:23:04.448Z,26.30
2023-05-20T01:25:31.024Z,26.29
2023-05-20T01:27:57.967Z,26.30
2023-05-20T01:30:30.943Z,26.41
2023-05-20T01:33:01.372Z,26.37
2023-05-20T01:35:30.527Z,26.30
2023-05-20T01:37:58.119Z,26.32
2023-05-20T01:40:25.386Z,26.30
2023-05-20T01:42:55.030Z,26.31
2023-05-20T01:45:23.916Z,26.35
2023-05-20T01:47:50.693Z,26.29
2023-05-20T01:50:17.331Z,26.29
2023-05-20T01:52:43.883Z,26.30
2023-05-20T01:55:10.459Z,26.28
2023-05-20T01:57:37.032Z,26.26
2023-05-20T02:00:06.239Z,26.25
2023-05-20T02:02:39.982Z,26.24
2023-05-20T02:05:09.581Z,26.20
2023-05-20T02:07:36.157Z,26.20
2023-05-20T02:10:02.713Z,26.17
2023-05-20T02:12:29.237Z,26.16
2023-05-20T02:14:56.177Z,26.11
2023-05-20T02:17:22.749Z,26.10
2023-05-20T02:19:49.639Z,26.11
2023-05-20T02:22:16.358Z,26.09
2023-05-20T02:24:46.602Z,26.09
2023-05-20T02:27:13.240Z,26.07
2023-05-20T02:29:39.781Z,26.05
2023-05-20T02:32:06.666Z,26.03
2023-05-20T02:34:33.304Z,26.04
2023-05-20T02:36:59.939Z,26.03
2023-05-20T02:39:28.485Z,26.01
2023-05-20T02:41:55.271Z,26.01
2023-05-20T02:44:21.824Z,26.00
2023-05-20T02:46:48.325Z,26.01
2023-05-20T02:49:14.870Z,26.02
2023-05-20T02:51:41.866Z,26.02
2023-05-20T02:54:08.395Z,26.01
2023-05-20T02:56:35.396Z,26.02
2023-05-20T02:59:03.652Z,26.01
2023-05-20T03:01:30.343Z,26.01
2023-05-20T03:03:56.922Z,26.00
2023-05-20T03:06:23.510Z,25.99
2023-05-20T03:08:50.022Z,25.99
2023-05-20T03:11:16.526Z,25.97
2023-05-20T03:13:43.069Z,25.97
2023-05-20T03:16:13.068Z,26.01
2023-05-20T03:18:39.800Z,26.00
2023-05-20T03:21:06.361Z,26.00
2023-05-20T03:23:32.883Z,26.01
2023-05-20T03:25:59.595Z,26.05
2023-05-20T03:28:26.563Z,26.05
2023-05-20T03:30:53.416Z,26.06
2023-05-20T03:33:21.213Z,26.07
2023-05-20T03:35:47.714Z,26.10
2023-05-20T03:38:15.911Z,26.08
2023-05-20T03:40:42.428Z,26.07
2023-05-20T03:43:09.034Z,26.06
2023-05-20T03:45:35.793Z,26.08
2023-05-20T03:48:07.180Z,26.07
2023-05-20T03:50:35.533Z,26.07
2023-05-20T03:53:02.254Z,26.06
2023-05-20T03:55:35.361Z,26.06
2023-05-20T03:58:02.508Z,26.06
2023-05-20T04:00:31.685Z,26.06
2023-05-20T04:02:58.514Z,26.05
2023-05-20T04:05:25.240Z,26.08
2023-05-20T04:07:51.886Z,26.06
2023-05-20T04:10:20.549Z,26.06
2023-05-20T04:12:47.134Z,26.09
2023-05-20T04:15:15.008Z,26.09
2023-05-20T04:17:50.444Z,26.11
2023-05-20T04:20:17.395Z,26.13
2023-05-20T04:22:44.171Z,26.11
2023-05-20T04:25:10.934Z,26.14
2023-05-20T04:27:40.360Z,26.17
2023-05-20T04:30:07.810Z,26.19
2023-05-20T04:32:38.780Z,26.23
2023-05-20T04:35:11.969Z,26.25
2023-05-20T04:37:42.244Z,26.25
2023-05-20T04:40:09.520Z,26.27
2023-05-20T04:42:36.232Z,26.30
2023-05-20T04:45:04.522Z,26.32
2023-05-20T04:47:32.204Z,26.35
2023-05-20T04:49:58.727Z,26.37
2023-05-20T04:52:26.020Z,26.40
2023-05-20T04:54:52.747Z,26.42
2023-05-20T04:57:21.124Z,26.46
2023-05-20T04:59:48.006Z,26.48
2023-05-20T05:02:14.786Z,26.45
2023-05-20T05:04:41.503Z,26.45
2023-05-20T05:07:08.505Z,26.48
2023-05-20T05:09:35.223Z,26.49
2023-05-20T05:12:02.776Z,26.51
2023-05-20T05:14:29.362Z,26.53
2023-05-20T05:16:55.967Z,26.54
2023-05-20T05:19:22.951Z,26.54
2023-05-20T05:21:49.845Z,26.57
2023-05-20T05:24:16.404Z,26.56
2023-05-20T05:26:43.043Z,26.55
2023-05-20T05:29:11.592Z,26.56
2023-05-20T05:31:38.368Z,26.59
2023-05-20T05:34:04.884Z,26.43
2023-05-20T05:36:33.594Z,26.63
2023-05-20T05:39:00.628Z,26.63
2023-05-20T05:41:27.410Z,26.65
2023-05-20T05:43:54.259Z,26.65
2023-05-20T05:46:21.066Z,26.64
2023-05-20T05:48:50.497Z,26.65
2023-05-20T05:51:18.084Z,26.65
2023-05-20T05:53:46.306Z,26.65
2023-05-20T05:56:13.316Z,26.56
2023-05-20T05:58:39.956Z,26.51
2023-05-20T06:01:07.234Z,26.48
2023-05-20T06:03:33.931Z,26.43
2023-05-20T06:06:00.516Z,26.41
2023-05-20T06:08:27.266Z,26.34
2023-05-20T06:10:53.904Z,26.33
2023-05-20T06:13:20.629Z,26.30
2023-05-20T06:15:49.632Z,26.33
2023-05-20T06:18:16.832Z,26.26
2023-05-20T06:20:43.430Z,26.24
2023-05-20T06:23:10.043Z,26.20
2023-05-20T06:25:48.850Z,26.17
2023-05-20T06:28:15.531Z,26.16
2023-05-20T06:30:42.362Z,26.15
2023-05-20T06:33:09.049Z,26.14
2023-05-20T06:35:35.969Z,26.14
2023-05-20T06:38:04.445Z,26.14
2023-05-20T06:40:31.011Z,26.13
2023-05-20T06:42:58.066Z,26.12
2023-05-20T06:45:45.165Z,26.12
2023-05-20T06:48:22.784Z,26.14
2023-05-20T06:50:49.280Z,26.13
2023-05-20T06:53:15.839Z,26.13
2023-05-20T06:55:42.378Z,26.11
2023-05-20T06:58:08.911Z,26.09
2023-05-20T07:00:35.851Z,26.08
2023-05-20T07:03:02.698Z,26.10
2023-05-20T07:05:29.502Z,26.10
2023-05-20T07:07:56.822Z,26.10
2023-05-20T07:10:23.364Z,26.11
2023-05-20T07:12:49.948Z,26.06
2023-05-20T07:15:16.561Z,26.09
2023-05-20T07:17:43.206Z,26.11
2023-05-20T07:20:10.112Z,26.09
2023-05-20T07:22:36.854Z,26.08
2023-05-20T07:25:14.417Z,26.11
2023-05-20T07:27:41.038Z,26.10
2023-05-20T07:30:08.743Z,26.09
2023-05-20T07:32:36.468Z,26.11
2023-05-20T07:35:03.103Z,26.09
2023-05-20T07:37:29.699Z,26.10
2023-05-20T07:39:56.313Z,26.13
2023-05-20T07:42:22.876Z,26.10
2023-05-20T07:44:53.570Z,26.11
2023-05-20T07:47:20.656Z,26.06
2023-05-20T07:49:47.348Z,26.01
2023-05-20T07:52:13.866Z,25.98
2023-05-20T07:54:41.390Z,25.98
2023-05-20T07:57:08.004Z,25.92
2023-05-20T07:59:34.548Z,25.90
2023-05-20T08:02:01.375Z,25.88
2023-05-20T08:04:28.419Z,25.89
2023-05-20T08:06:56.432Z,25.89
2023-05-20T08:09:37.346Z,25.91
2023-05-20T08:12:04.027Z,25.85
2023-05-20T08:14:30.653Z,25.85
2023-05-20T08:16:57.901Z,25.83
2023-05-20T08:19:24.508Z,25.78
2023-05-20T08:21:51.144Z,25.76
2023-05-20T08:24:17.729Z,25.78
2023-05-20T08:26:44.359Z,25.78
2023-05-20T08:29:10.883Z,25.80
2023-05-20T08:31:37.486Z,25.86
2023-05-20T08:34:04.483Z,25.87
2023-05-20T08:36:31.107Z,25.86
2023-05-20T08:38:57.681Z,25.88
2023-05-20T08:41:24.948Z,25.89
2023-05-20T08:43:52.441Z,25.91
2023-05-20T08:46:20.385Z,25.95
2023-05-20T08:48:47.046Z,26.01
2023-05-20T08:51:14.765Z,26.03
2023-05-20T08:53:41.310Z,26.00
2023-05-20T08:56:08.477Z,26.00
2023-05-20T08:58:35.302Z,26.02
2023-05-20T09:01:02.267Z,25.76
2023-05-20T09:03:28.851Z,25.73
2023-05-20T09:06:04.008Z,25.84
2023-05-20T09:08:30.838Z,25.71
2023-05-20T09:10:57.462Z,25.73
2023-05-20T09:13:24.125Z,25.75
2023-05-20T09:15:50.901Z,25.75
2023-05-20T09:18:17.536Z,25.83
2023-05-20T09:20:47.156Z,25.77
2023-05-20T09:23:13.749Z,25.70
2023-05-20T09:25:40.396Z,25.71
2023-05-20T09:28:07.826Z,25.71
2023-05-20T09:30:34.435Z,25.66
2023-05-20T09:33:03.521Z,25.63
2023-05-20T09:35:30.603Z,25.62
2023-05-20T09:37:58.387Z,25.65
2023-05-20T09:40:26.694Z,25.63
2023-05-20T09:43:11.137Z,25.71
2023-05-20T09:45:38.551Z,25.49
2023-05-20T09:48:09.034Z,25.46
2023-05-20T09:50:35.986Z,25.47
2023-05-20T09:53:03.881Z,25.48
2023-05-20T09:55:30.886Z,25.50
2023-05-20T09:57:59.307Z,25.57
2023-05-20T10:00:26.004Z,25.58
2023-05-20T10:02:52.999Z,25.62
2023-05-20T10:05:24.786Z,25.67
2023-05-20T10:08:14.275Z,25.76
2023-05-20T10:11:04.365Z,25.75
2023-05-20T10:14:01.998Z,25.71
2023-05-20T10:16:42.062Z,25.69
2023-05-20T10:19:27.370Z,25.78
2023-05-20T10:22:05.342Z,25.74
2023-05-20T10:24:41.019Z,25.80
2023-05-20T10:27:10.199Z,25.72
2023-05-20T10:29:57.194Z,25.88
2023-05-20T10:32:27.637Z,25.66
2023-05-20T10:34:59.514Z,25.76
2023-05-20T10:37:32.181Z,25.75
2023-05-20T10:40:11.510Z,25.87
2023-05-20T10:42:38.081Z,25.76
2023-05-20T10:45:05.232Z,25.81
2023-05-20T10:47:31.953Z,25.82
2023-05-20T10:49:58.664Z,25.84
2023-05-20T10:52:25.480Z,25.86
2023-05-20T10:54:59.126Z,25.99
2023-05-20T10:57:29.265Z,25.99
2023-05-20T10:59:56.367Z,25.93
2023-05-20T11:02:26.719Z,25.92
2023-05-20T11:04:53.735Z,25.92
2023-05-20T11:07:27.879Z,25.99
2023-05-20T11:09:55.747Z,25.90
2023-05-20T11:12:24.216Z,25.91
2023-05-20T11:14:51.506Z,25.86
2023-05-20T11:17:18.991Z,25.87
2023-05-20T11:19:46.695Z,25.87
2023-05-20T11:22:13.254Z,25.91
2023-05-20T11:24:39.764Z,25.95
2023-05-20T11:27:06.840Z,25.96
2023-05-20T11:29:33.524Z,25.98
2023-05-20T11:32:01.421Z,26.00
2023-05-20T11:34:35.018Z,26.12
2023-05-20T11:37:01.520Z,26.02
2023-05-20T11:39:31.095Z,26.10
2023-05-20T11:41:58.941Z,26.01
2023-05-20T11:44:26.089Z,26.02
2023-05-20T11:46:59.802Z,26.13
2023-05-20T11:49:26.417Z,26.02
2023-05-20T11:51:52.931Z,26.05
2023-05-20T11:54:22.432Z,26.38
2023-05-20T11:56:48.977Z,26.39
2023-05-20T11:59:15.629Z,26.48
2023-05-20T12:01:42.944Z,26.53
2023-05-20T12:04:10.250Z,26.55
2023-05-20T12:06:40.010Z,26.56
2023-05-20T12:09:07.435Z,26.55
2023-05-20T12:11:35.595Z,26.59
2023-05-20T12:14:05.068Z,26.60
2023-05-20T12:16:33.270Z,26.62
2023-05-20T12:19:00.625Z,26.58
2023-05-20T12:21:28.771Z,26.64
2023-05-20T12:23:58.829Z,26.59
2023-05-20T12:26:26.864Z,26.61
2023-05-20T12:28:54.298Z,26.61
2023-05-20T12:31:20.880Z,26.62
2023-05-20T12:33:47.482Z,26.60
2023-05-20T12:36:14.447Z,26.62
2023-05-20T12:38:41.339Z,26.62
2023-05-20T12:41:07.992Z,26.63
2023-05-20T12:43:36.832Z,26.68
2023-05-20T12:46:03.860Z,26.67
2023-05-20T12:48:30.534Z,26.70
2023-05-20T12:50:57.112Z,26.71
2023-05-20T12:53:23.651Z,26.72
2023-05-20T12:55:50.155Z,26.64
2023-05-20T12:58:16.725Z,26.45
2023-05-20T13:00:43.252Z,26.40
2023-05-20T13:03:09.922Z,26.46
2023-05-20T13:05:36.560Z,26.48
2023-05-20T13:08:03.257Z,26.48
2023-05-20T13:10:29.785Z,26.48
2023-05-20T13:12:56.393Z,26.48
2023-05-20T13:15:22.924Z,26.49
2023-05-20T13:17:49.567Z,26.49
2023-05-20T13:20:19.023Z,26.50
2023-05-20T13:22:46.326Z,26.52
2023-05-20T13:25:12.874Z,26.56
2023-05-20T13:27:39.454Z,26.56
2023-05-20T13:30:07.137Z,26.56
2023-05-20T13:32:33.921Z,26.60
2023-05-20T13:35:00.682Z,26.60
2023-05-20T13:37:27.196Z,26.65
2023-05-20T13:39:53.743Z,26.68
2023-05-20T13:42:21.052Z,26.68
2023-05-20T13:44:47.547Z,26.68
2023-05-20T13:47:14.163Z,26.70
2023-05-20T13:49:40.695Z,26.71
2023-05-20T13:52:07.423Z,26.75
2023-05-20T13:54:34.735Z,26.77
2023-05-20T13:57:01.870Z,26.81
2023-05-20T13:59:28.441Z,26.83
2023-05-20T14:01:55.246Z,26.85
2023-05-20T14:04:22.327Z,26.86
2023-05-20T14:06:49.060Z,26.86
2023-05-20T14:09:15.821Z,26.87
2023-05-20T14:11:42.460Z,26.91
2023-05-20T14:14:08.981Z,26.94
2023-05-20T14:16:35.591Z,26.98
2023-05-20T14:19:02.251Z,26.99
2023-05-20T14:21:28.752Z,27.02
2023-05-20T14:23:55.848Z,27.06
2023-05-20T14:26:22.374Z,27.10
2023-05-20T14:28:49.116Z,27.11
2023-05-20T14:31:15.952Z,27.18
2023-05-20T14:33:42.496Z,27.20
2023-05-20T14:36:09.106Z,27.36
2023-05-20T14:38:35.726Z,27.40
2023-05-20T14:41:02.266Z,27.42
2023-05-20T14:43:28.800Z,27.34
2023-05-20T14:45:55.378Z,27.30
2023-05-20T14:48:21.860Z,27.33
2023-05-20T14:50:49.709Z,27.36
2023-05-20T14:53:17.043Z,27.38
2023-05-20T14:55:43.624Z,27.38
2023-05-20T14:58:10.165Z,27.41
2023-05-20T15:00:36.858Z,27.42
2023-05-20T15:03:03.887Z,27.43
2023-05-20T15:05:30.961Z,27.69
2023-05-20T15:07:57.581Z,27.57
2023-05-20T15:10:24.205Z,27.57
2023-05-20T15:12:51.381Z,27.62
2023-05-20T15:15:18.308Z,27.60
2023-05-20T15:17:45.177Z,27.61
2023-05-20T15:20:12.176Z,27.61
2023-05-20T15:22:38.876Z,27.63
2023-05-20T15:25:05.649Z,27.77
2023-05-20T15:27:32.146Z,27.93
2023-05-20T15:29:58.696Z,27.96
2023-05-20T15:32:25.705Z,27.99
2023-05-20T15:34:52.488Z,28.01
2023-05-20T15:37:19.152Z,28.02
2023-05-20T15:39:45.812Z,28.02
2023-05-20T15:42:18.378Z,28.04
2023-05-20T15:44:45.873Z,28.05
2023-05-20T15:47:12.416Z,28.07
2023-05-20T15:49:39.124Z,28.09
2023-05-20T15:52:05.850Z,28.09
2023-05-20T15:54:32.965Z,28.09
2023-05-20T15:56:59.882Z,28.10
2023-05-20T15:59:26.593Z,28.13
2023-05-20T16:01:53.207Z,28.13
2023-05-20T16:04:20.006Z,28.13
2023-05-20T16:06:47.129Z,28.15
2023-05-20T16:09:13.627Z,28.16
2023-05-20T16:11:40.217Z,28.16
2023-05-20T16:15:26.596Z,26.45
2023-05-20T16:17:53.234Z,26.15
2023-05-20T16:20:19.928Z,25.71
2023-05-20T16:22:46.436Z,25.55
2023-05-20T16:25:12.921Z,25.32
2023-05-20T16:27:39.444Z,24.99
2023-05-20T16:30:07.456Z,24.95
2023-05-20T16:32:34.048Z,24.83
2023-05-20T16:35:01.633Z,24.76
2023-05-20T16:37:28.421Z,24.71
2023-05-20T16:39:54.922Z,24.68
2023-05-20T16:42:21.415Z,24.72
2023-05-20T16:44:49.816Z,24.80
2023-05-20T16:47:16.698Z,24.79
2023-05-20T16:49:43.207Z,24.72
2023-05-20T16:52:09.771Z,24.48
2023-05-20T16:54:36.395Z,24.51
2023-05-20T16:57:03.785Z,24.47
2023-05-20T16:59:31.493Z,24.43
2023-05-20T17:01:58.232Z,24.23
2023-05-20T17:04:24.759Z,24.23
2023-05-20T17:06:51.296Z,24.27
2023-05-20T17:09:17.853Z,24.33
2023-05-20T17:11:44.416Z,24.26
2023-05-20T17:14:11.063Z,24.26
2023-05-20T17:16:37.646Z,24.32
2023-05-20T17:19:04.246Z,24.18
2023-05-20T17:21:31.125Z,24.30
2023-05-20T17:23:57.650Z,24.29
2023-05-20T17:26:24.235Z,24.19
2023-05-20T17:28:50.803Z,24.22
2023-05-20T17:31:17.305Z,24.27
2023-05-20T17:33:43.896Z,24.28
2023-05-20T17:36:10.557Z,24.20
2023-05-20T17:38:37.151Z,24.27
2023-05-20T17:41:03.759Z,24.28
2023-05-20T17:43:30.311Z,24.14
2023-05-20T17:45:57.089Z,24.00
2023-05-20T17:48:23.703Z,24.01
2023-05-20T17:50:50.183Z,24.08
2023-05-20T17:53:18.688Z,24.10
2023-05-20T17:55:47.076Z,24.17
2023-05-20T17:58:13.587Z,24.28
2023-05-20T18:00:42.255Z,24.21
2023-05-20T18:03:09.603Z,24.10
2023-05-20T18:05:36.557Z,24.18
2023-05-20T18:08:03.451Z,24.18
2023-05-20T18:10:30.012Z,24.22
2023-05-20T18:12:56.549Z,24.24
2023-05-20T18:15:23.079Z,24.15
2023-05-20T18:17:49.599Z,24.18
2023-05-20T18:20:16.441Z,24.11
2023-05-20T18:22:45.601Z,24.14
2023-05-20T18:25:15.536Z,24.10
2023-05-20T18:27:42.275Z,24.01
2023-05-20T18:30:10.011Z,24.03
2023-05-20T18:32:36.630Z,23.96
2023-05-20T18:35:03.236Z,24.03
2023-05-20T18:37:29.764Z,24.06
2023-05-20T18:39:59.197Z,24.03
2023-05-20T18:42:25.738Z,23.97
2023-05-20T18:44:52.592Z,23.94
2023-05-20T18:47:19.107Z,23.96
2023-05-20T18:49:46.006Z,23.96
2023-05-20T18:52:12.630Z,23.93
2023-05-20T18:54:39.168Z,23.91
2023-05-20T18:57:06.115Z,23.88
2023-05-20T18:59:32.699Z,23.83
2023-05-20T19:01:59.353Z,23.85
2023-05-20T19:04:26.086Z,23.87
2023-05-20T19:06:53.018Z,23.84
2023-05-20T19:09:20.064Z,23.82
2023-05-20T19:11:46.574Z,23.75
2023-05-20T19:14:13.086Z,23.72
2023-05-20T19:16:39.752Z,23.69
2023-05-20T19:19:06.338Z,23.65
2023-05-20T19:21:33.523Z,23.60
2023-05-20T19:24:00.191Z,23.59
2023-05-20T19:26:26.735Z,23.53
2023-05-20T19:28:53.295Z,23.50
2023-05-20T19:31:22.733Z,23.49
2023-05-20T19:33:52.491Z,23.53
2023-05-20T19:36:19.255Z,23.29
2023-05-20T19:38:46.806Z,23.20
2023-05-20T19:41:13.793Z,23.17
2023-05-20T19:43:40.390Z,23.15
2023-05-20T19:46:06.983Z,23.08
2023-05-20T19:48:33.803Z,23.05
2023-05-20T19:51:02.106Z,22.99
2023-05-20T19:53:28.632Z,22.99
2023-05-20T19:55:55.135Z,22.99
2023-05-20T19:58:22.449Z,22.99
2023-05-20T20:00:49.006Z,22.99
2023-05-20T20:03:15.613Z,22.92
2023-05-20T20:05:42.160Z,22.99
2023-05-20T20:08:08.687Z,22.96
2023-05-20T20:10:37.374Z,22.84
2023-05-20T20:13:03.914Z,22.71
2023-05-20T20:15:31.672Z,22.89
2023-05-20T20:17:58.529Z,22.86
2023-05-20T20:20:26.499Z,22.84
2023-05-20T20:22:53.005Z,22.81
2023-05-20T20:25:20.374Z,22.84
2023-05-20T20:27:48.282Z,22.93
2023-05-20T20:30:15.438Z,23.00
2023-05-20T20:32:42.540Z,23.03
2023-05-20T20:35:09.521Z,23.00
2023-05-20T20:37:37.840Z,23.08
2023-05-20T20:40:13.294Z,23.00
2023-05-20T20:42:41.577Z,23.07
2023-05-20T20:45:08.528Z,22.93
2023-05-20T20:47:35.066Z,23.02
2023-05-20T20:50:03.342Z,22.91
2023-05-20T20:52:29.832Z,22.94
2023-05-20T20:54:57.405Z,22.93
2023-05-20T20:57:25.022Z,22.96
2023-05-20T20:59:53.903Z,22.97
2023-05-20T21:02:20.752Z,22.82
2023-05-20T21:04:47.356Z,22.76
2023-05-20T21:07:17.883Z,22.82
2023-05-20T21:09:45.361Z,22.71
2023-05-20T21:12:11.922Z,22.70
2023-05-20T21:14:38.428Z,22.68
2023-05-20T21:17:05.181Z,22.67
2023-05-20T21:19:31.941Z,22.55
2023-05-20T21:21:58.471Z,22.56
2023-05-20T21:24:25.205Z,22.52
2023-05-20T21:26:51.737Z,22.46
2023-05-20T21:29:18.244Z,22.52
2023-05-20T21:31:44.760Z,22.50
2023-05-20T21:34:11.471Z,22.43
2023-05-20T21:36:37.965Z,22.47
2023-05-20T21:39:04.616Z,22.40
2023-05-20T21:41:31.398Z,22.36
2023-05-20T21:43:57.896Z,22.40
2023-05-20T21:46:24.388Z,22.49
2023-05-20T21:48:50.928Z,22.41
2023-05-20T21:51:17.416Z,22.36
2023-05-20T21:53:43.934Z,22.31
2023-05-20T21:56:10.528Z,22.28
2023-05-20T21:58:41.094Z,22.27
2023-05-20T22:01:09.575Z,22.30
2023-05-20T22:03:36.469Z,22.19
2023-05-20T22:06:04.999Z,22.16
2023-05-20T22:08:33.681Z,22.15
2023-05-20T22:11:07.344Z,22.13
2023-05-20T22:13:35.245Z,22.19
2023-05-20T22:16:04.922Z,22.09
2023-05-20T22:18:31.852Z,22.00
2023-05-20T22:20:59.442Z,22.02
2023-05-20T22:23:26.700Z,22.01
2023-05-20T22:25:53.236Z,21.99
2023-05-20T22:28:19.741Z,22.02
2023-05-20T22:30:46.437Z,21.99
2023-05-20T22:33:13.098Z,21.92
2023-05-20T22:35:39.652Z,21.88
2023-05-20T22:38:06.573Z,21.89
2023-05-20T22:40:33.683Z,21.87
2023-05-20T22:43:00.186Z,21.80
2023-05-20T22:45:26.691Z,21.90
2023-05-20T22:47:54.133Z,21.97
2023-05-20T22:50:20.859Z,21.93
2023-05-20T22:52:47.440Z,21.86
2023-05-20T22:55:13.935Z,21.89
2023-05-20T22:57:40.510Z,21.99
2023-05-20T23:00:07.895Z,21.97
2023-05-20T23:02:35.116Z,21.98
2023-05-20T23:05:03.735Z,21.92
2023-05-20T23:07:31.261Z,22.09
2023-05-20T23:09:57.790Z,22.15
2023-05-20T23:12:24.337Z,22.10
2023-05-20T23:14:51.621Z,22.04
2023-05-20T23:17:18.150Z,22.11
2023-05-20T23:19:44.687Z,22.15
2023-05-20T23:22:12.043Z,22.16
2023-05-20T23:24:38.638Z,22.20
2023-05-20T23:27:06.103Z,22.21
2023-05-20T23:29:32.622Z,22.21
2023-05-20T23:31:59.109Z,22.23
2023-05-20T23:34:27.246Z,22.24
2023-05-20T23:36:53.834Z,22.14
2023-05-20T23:39:21.136Z,22.26
2023-05-20T23:41:47.694Z,22.28
2023-05-20T23:44:17.205Z,22.28
2023-05-20T23:46:44.850Z,22.30
2023-05-20T23:49:12.535Z,22.41
2023-05-20T23:51:39.541Z,22.36
2023-05-20T23:54:06.034Z,22.32
2023-05-20T23:56:32.541Z,22.32
2023-05-20T23:58:59.033Z,22.23
